RYR6112 EPLB-EPGD
Flight info
| Callsign | RYR6112 |
|---|---|
| Flight time | 1h 3m |
| Altitude | 36000 |
| Route | VADOL T270 OSLOG |
| Aircraft | B738/M-SDE2E3FGHIRWXY/LB1 |
Departure
| Time | 2026-04-12 10:24 |
|---|---|
| Airport | Lublin Airport (EPLB) |
Arrival
| Time | 2026-04-12 11:28 |
|---|---|
| Airport | Gdańsk Lech Wałęsa Airport (EPGD) |
| Time | Latitude | Longitude | Altitude | Speed | Heading |
|---|---|---|---|---|---|
| 2026-04-12 09:52 | 51.23658 | 22.71543 | 669 ft | 0 kts | 167° |
| 2026-04-12 10:16 | 51.23658 | 22.71542 | 669 ft | 1 kts | 167° |
| 2026-04-12 10:16 | 51.23671 | 22.71537 | 669 ft | 2 kts | 167° |
| 2026-04-12 10:16 | 51.23686 | 22.71532 | 670 ft | 2 kts | 167° |
| 2026-04-12 10:16 | 51.23701 | 22.71527 | 670 ft | 2 kts | 165° |
| 2026-04-12 10:17 | 51.23714 | 22.71514 | 670 ft | 2 kts | 132° |
| 2026-04-12 10:17 | 51.23722 | 22.71494 | 670 ft | 2 kts | 107° |
| 2026-04-12 10:17 | 51.23723 | 22.71470 | 670 ft | 2 kts | 81° |
| 2026-04-12 10:17 | 51.23719 | 22.71447 | 669 ft | 2 kts | 76° |
| 2026-04-12 10:18 | 51.23716 | 22.71424 | 669 ft | 2 kts | 78° |
| 2026-04-12 10:18 | 51.23712 | 22.71400 | 668 ft | 2 kts | 77° |
| 2026-04-12 10:18 | 51.23712 | 22.71395 | 668 ft | 0 kts | 77° |
| 2026-04-12 10:20 | 51.23714 | 22.71406 | 668 ft | 3 kts | 77° |
| 2026-04-12 10:20 | 51.23756 | 22.71444 | 670 ft | 11 kts | 354° |
| 2026-04-12 10:21 | 51.23837 | 22.71417 | 671 ft | 13 kts | 346° |
| 2026-04-12 10:21 | 51.23958 | 22.71360 | 670 ft | 19 kts | 320° |
| 2026-04-12 10:21 | 51.23978 | 22.71122 | 653 ft | 26 kts | 260° |
| 2026-04-12 10:21 | 51.23937 | 22.70803 | 632 ft | 29 kts | 258° |
| 2026-04-12 10:22 | 51.23890 | 22.70469 | 622 ft | 28 kts | 257° |
| 2026-04-12 10:22 | 51.23846 | 22.70161 | 622 ft | 27 kts | 258° |
| 2026-04-12 10:22 | 51.23804 | 22.69874 | 626 ft | 25 kts | 258° |
| 2026-04-12 10:22 | 51.23757 | 22.69688 | 629 ft | 11 kts | 245° |
| 2026-04-12 10:23 | 51.23775 | 22.69680 | 628 ft | 5 kts | 69° |
| 2026-04-12 10:23 | 51.23782 | 22.69722 | 627 ft | 0 kts | 77° |
| 2026-04-12 10:23 | 51.23787 | 22.69755 | 627 ft | 22 kts | 77° |
| 2026-04-12 10:23 | 51.23880 | 22.70405 | 621 ft | 95 kts | 78° |
| 2026-04-12 10:24 | 51.24069 | 22.71725 | 683 ft | 147 kts | 77° |
| 2026-04-12 10:24 | 51.24318 | 22.73478 | 1058 ft | 164 kts | 78° |
| 2026-04-12 10:24 | 51.24541 | 22.75155 | 1745 ft | 159 kts | 78° |
| 2026-04-12 10:24 | 51.24801 | 22.76922 | 2243 ft | 164 kts | 76° |
| 2026-04-12 10:25 | 51.25057 | 22.78656 | 2870 ft | 163 kts | 75° |
| 2026-04-12 10:25 | 51.25311 | 22.80396 | 3409 ft | 165 kts | 75° |
| 2026-04-12 10:25 | 51.25595 | 22.82169 | 3971 ft | 165 kts | 65° |
| 2026-04-12 10:25 | 51.26277 | 22.83589 | 4486 ft | 165 kts | 38° |
| 2026-04-12 10:26 | 51.27231 | 22.84562 | 4976 ft | 169 kts | 20° |
| 2026-04-12 10:26 | 51.28465 | 22.84746 | 5296 ft | 187 kts | 350° |
| 2026-04-12 10:26 | 51.29736 | 22.84279 | 5769 ft | 196 kts | 348° |
| 2026-04-12 10:26 | 51.31121 | 22.83748 | 6176 ft | 213 kts | 343° |
| 2026-04-12 10:27 | 51.32446 | 22.82569 | 6656 ft | 230 kts | 317° |
| 2026-04-12 10:27 | 51.33352 | 22.80400 | 7144 ft | 245 kts | 294° |
| 2026-04-12 10:27 | 51.33658 | 22.77712 | 7812 ft | 255 kts | 270° |
| 2026-04-12 10:27 | 51.33409 | 22.74929 | 8580 ft | 258 kts | 263° |
| 2026-04-12 10:28 | 51.33086 | 22.72076 | 9332 ft | 262 kts | 264° |
| 2026-04-12 10:28 | 51.32786 | 22.69248 | 10083 ft | 265 kts | 265° |
| 2026-04-12 10:28 | 51.32481 | 22.66317 | 10881 ft | 268 kts | 265° |
| 2026-04-12 10:28 | 51.32175 | 22.63394 | 11709 ft | 269 kts | 266° |
| 2026-04-12 10:29 | 51.31871 | 22.60441 | 12092 ft | 277 kts | 266° |
| 2026-04-12 10:29 | 51.31547 | 22.57419 | 12166 ft | 276 kts | 264° |
| 2026-04-12 10:29 | 51.31385 | 22.54327 | 12172 ft | 280 kts | 284° |
| 2026-04-12 10:29 | 51.32153 | 22.51539 | 12180 ft | 275 kts | 315° |
| 2026-04-12 10:30 | 51.33622 | 22.49680 | 12197 ft | 273 kts | 330° |
| 2026-04-12 10:30 | 51.35174 | 22.47943 | 12168 ft | 273 kts | 324° |
| 2026-04-12 10:30 | 51.36639 | 22.45958 | 12319 ft | 286 kts | 321° |
| 2026-04-12 10:30 | 51.38068 | 22.43849 | 13481 ft | 276 kts | 320° |
| 2026-04-12 10:31 | 51.39479 | 22.41731 | 14083 ft | 287 kts | 320° |
| 2026-04-12 10:31 | 51.40977 | 22.39471 | 14501 ft | 303 kts | 320° |
| 2026-04-12 10:31 | 51.42524 | 22.37114 | 15055 ft | 311 kts | 320° |
| 2026-04-12 10:31 | 51.43962 | 22.34904 | 16194 ft | 303 kts | 319° |
| 2026-04-12 10:32 | 51.45567 | 22.32444 | 16949 ft | 309 kts | 319° |
| 2026-04-12 10:32 | 51.47095 | 22.30101 | 17864 ft | 308 kts | 319° |
| 2026-04-12 10:32 | 51.48633 | 22.27737 | 18707 ft | 309 kts | 320° |
| 2026-04-12 10:32 | 51.50165 | 22.25377 | 19525 ft | 309 kts | 320° |
| 2026-04-12 10:33 | 51.51708 | 22.23006 | 20330 ft | 308 kts | 320° |
| 2026-04-12 10:33 | 51.53219 | 22.20678 | 21226 ft | 303 kts | 320° |
| 2026-04-12 10:33 | 51.54741 | 22.18335 | 21848 ft | 306 kts | 320° |
| 2026-04-12 10:33 | 51.56284 | 22.15962 | 22528 ft | 307 kts | 319° |
| 2026-04-12 10:34 | 51.57801 | 22.13621 | 23308 ft | 303 kts | 320° |
| 2026-04-12 10:34 | 51.59314 | 22.11282 | 23949 ft | 304 kts | 319° |
| 2026-04-12 10:34 | 51.60813 | 22.08957 | 24648 ft | 304 kts | 319° |
| 2026-04-12 10:34 | 51.62338 | 22.06593 | 25196 ft | 308 kts | 319° |
| 2026-04-12 10:35 | 51.63900 | 22.04166 | 25694 ft | 313 kts | 319° |
| 2026-04-12 10:35 | 51.65448 | 22.01760 | 26295 ft | 314 kts | 320° |
| 2026-04-12 10:35 | 51.67032 | 21.99297 | 26581 ft | 319 kts | 319° |
| 2026-04-12 10:35 | 51.68653 | 21.96779 | 26602 ft | 333 kts | 319° |
| 2026-04-12 10:36 | 51.70356 | 21.94139 | 26741 ft | 345 kts | 319° |
| 2026-04-12 10:36 | 51.72087 | 21.91457 | 26916 ft | 356 kts | 319° |
| 2026-04-12 10:36 | 51.73869 | 21.88687 | 27168 ft | 365 kts | 319° |
| 2026-04-12 10:36 | 51.75687 | 21.85822 | 27741 ft | 366 kts | 318° |
| 2026-04-12 10:37 | 51.77494 | 21.82957 | 28453 ft | 363 kts | 319° |
| 2026-04-12 10:37 | 51.79295 | 21.80126 | 29141 ft | 361 kts | 319° |
| 2026-04-12 10:37 | 51.81070 | 21.77346 | 29904 ft | 356 kts | 319° |
| 2026-04-12 10:37 | 51.82827 | 21.74592 | 30829 ft | 347 kts | 319° |
| 2026-04-12 10:38 | 51.84502 | 21.71961 | 31644 ft | 338 kts | 319° |
| 2026-04-12 10:38 | 51.86188 | 21.69308 | 32058 ft | 340 kts | 319° |
| 2026-04-12 10:38 | 51.87867 | 21.66671 | 32385 ft | 343 kts | 319° |
| 2026-04-12 10:38 | 51.89552 | 21.64021 | 32696 ft | 345 kts | 319° |
| 2026-04-12 10:39 | 51.91249 | 21.61345 | 33069 ft | 346 kts | 319° |
| 2026-04-12 10:39 | 51.92950 | 21.58654 | 33447 ft | 347 kts | 319° |
| 2026-04-12 10:39 | 51.94679 | 21.55915 | 33804 ft | 348 kts | 318° |
| 2026-04-12 10:39 | 51.96395 | 21.53195 | 34187 ft | 348 kts | 318° |
| 2026-04-12 10:40 | 51.98132 | 21.50440 | 34538 ft | 348 kts | 318° |
| 2026-04-12 10:40 | 51.99856 | 21.47716 | 34802 ft | 350 kts | 318° |
| 2026-04-12 10:40 | 52.01593 | 21.44964 | 35080 ft | 352 kts | 318° |
| 2026-04-12 10:40 | 52.03339 | 21.42183 | 35368 ft | 352 kts | 318° |
| 2026-04-12 10:41 | 52.05078 | 21.39408 | 35626 ft | 354 kts | 318° |
| 2026-04-12 10:41 | 52.06805 | 21.36647 | 35858 ft | 356 kts | 318° |
| 2026-04-12 10:41 | 52.08565 | 21.33834 | 36109 ft | 357 kts | 317° |
| 2026-04-12 10:42 | 52.12114 | 21.28161 | 36179 ft | 367 kts | 317° |
| 2026-04-12 10:42 | 52.15746 | 21.22335 | 36182 ft | 366 kts | 317° |
| 2026-04-12 10:43 | 52.21157 | 21.13619 | 36187 ft | 367 kts | 316° |
| 2026-04-12 10:43 | 52.24684 | 21.07940 | 36189 ft | 367 kts | 317° |
| 2026-04-12 10:44 | 52.27958 | 21.02633 | 36190 ft | 367 kts | 317° |
| 2026-04-12 10:44 | 52.31690 | 20.96587 | 36197 ft | 366 kts | 316° |
| 2026-04-12 10:45 | 52.35312 | 20.90705 | 36187 ft | 367 kts | 316° |
| 2026-04-12 10:45 | 52.38908 | 20.84846 | 36205 ft | 368 kts | 317° |
| 2026-04-12 10:46 | 52.42516 | 20.78954 | 36193 ft | 367 kts | 316° |
| 2026-04-12 10:46 | 52.46064 | 20.73146 | 36207 ft | 368 kts | 316° |
| 2026-04-12 10:47 | 52.49631 | 20.67292 | 36197 ft | 367 kts | 316° |
| 2026-04-12 10:47 | 52.53223 | 20.61384 | 36219 ft | 369 kts | 316° |
| 2026-04-12 10:48 | 52.56702 | 20.55652 | 36200 ft | 368 kts | 316° |
| 2026-04-12 10:48 | 52.60296 | 20.49716 | 36203 ft | 367 kts | 316° |
| 2026-04-12 10:49 | 52.63905 | 20.43735 | 36197 ft | 369 kts | 316° |
| 2026-04-12 10:49 | 52.67482 | 20.37789 | 36199 ft | 367 kts | 316° |
| 2026-04-12 10:50 | 52.71072 | 20.31781 | 36198 ft | 371 kts | 314° |
| 2026-04-12 10:50 | 52.74469 | 20.25565 | 36202 ft | 369 kts | 313° |
| 2026-04-12 10:51 | 52.77864 | 20.19243 | 36196 ft | 370 kts | 313° |
| 2026-04-12 10:51 | 52.81281 | 20.12902 | 36194 ft | 370 kts | 313° |
| 2026-04-12 10:52 | 52.84574 | 20.06440 | 36193 ft | 371 kts | 311° |
| 2026-04-12 10:52 | 52.87847 | 19.99898 | 36197 ft | 370 kts | 311° |
| 2026-04-12 10:53 | 52.91124 | 19.93363 | 36188 ft | 370 kts | 311° |
| 2026-04-12 10:53 | 52.94395 | 19.86842 | 36187 ft | 372 kts | 311° |
| 2026-04-12 10:54 | 52.97651 | 19.80331 | 36185 ft | 371 kts | 311° |
| 2026-04-12 10:54 | 53.00894 | 19.73823 | 36181 ft | 360 kts | 311° |
| 2026-04-12 10:55 | 53.04017 | 19.67569 | 35978 ft | 357 kts | 312° |
| 2026-04-12 10:55 | 53.05671 | 19.64478 | 35412 ft | 358 kts | 315° |
| 2026-04-12 10:55 | 53.07496 | 19.61736 | 34994 ft | 353 kts | 321° |
| 2026-04-12 10:56 | 53.09419 | 19.59285 | 34631 ft | 346 kts | 323° |
| 2026-04-12 10:56 | 53.11331 | 19.56937 | 34169 ft | 342 kts | 323° |
| 2026-04-12 10:56 | 53.13230 | 19.54614 | 33572 ft | 335 kts | 322° |
| 2026-04-12 10:56 | 53.15069 | 19.52358 | 32874 ft | 330 kts | 323° |
| 2026-04-12 10:57 | 53.16884 | 19.50127 | 32252 ft | 323 kts | 322° |
| 2026-04-12 10:57 | 53.18659 | 19.47940 | 31604 ft | 317 kts | 322° |
| 2026-04-12 10:57 | 53.20432 | 19.45767 | 30928 ft | 311 kts | 322° |
| 2026-04-12 10:57 | 53.22136 | 19.43668 | 30224 ft | 307 kts | 321° |
| 2026-04-12 10:58 | 53.23838 | 19.41559 | 29377 ft | 306 kts | 322° |
| 2026-04-12 10:58 | 53.25516 | 19.39479 | 28606 ft | 303 kts | 321° |
| 2026-04-12 10:58 | 53.27185 | 19.37411 | 27849 ft | 300 kts | 322° |
| 2026-04-12 10:58 | 53.28834 | 19.35366 | 27089 ft | 297 kts | 322° |
| 2026-04-12 10:59 | 53.30472 | 19.33338 | 26437 ft | 292 kts | 321° |
| 2026-04-12 10:59 | 53.32091 | 19.31330 | 25603 ft | 292 kts | 321° |
| 2026-04-12 10:59 | 53.33721 | 19.29306 | 24856 ft | 290 kts | 322° |
| 2026-04-12 10:59 | 53.35326 | 19.27310 | 24104 ft | 288 kts | 322° |
| 2026-04-12 11:00 | 53.36916 | 19.25330 | 23430 ft | 285 kts | 322° |
| 2026-04-12 11:00 | 53.38476 | 19.23386 | 22713 ft | 285 kts | 322° |
| 2026-04-12 11:00 | 53.40073 | 19.21395 | 21969 ft | 284 kts | 322° |
| 2026-04-12 11:00 | 53.41645 | 19.19434 | 21245 ft | 284 kts | 323° |
| 2026-04-12 11:01 | 53.43219 | 19.17468 | 20511 ft | 283 kts | 323° |
| 2026-04-12 11:01 | 53.44787 | 19.15505 | 19791 ft | 283 kts | 323° |
| 2026-04-12 11:01 | 53.46346 | 19.13554 | 19085 ft | 283 kts | 323° |
| 2026-04-12 11:01 | 53.47934 | 19.11565 | 18509 ft | 281 kts | 323° |
| 2026-04-12 11:02 | 53.49481 | 19.09623 | 18133 ft | 276 kts | 323° |
| 2026-04-12 11:02 | 53.51005 | 19.07710 | 17771 ft | 273 kts | 324° |
| 2026-04-12 11:02 | 53.52501 | 19.05830 | 17444 ft | 270 kts | 324° |
| 2026-04-12 11:02 | 53.54008 | 19.03936 | 17111 ft | 267 kts | 324° |
| 2026-04-12 11:03 | 53.55465 | 19.02104 | 16790 ft | 264 kts | 324° |
| 2026-04-12 11:03 | 53.56939 | 19.00249 | 16460 ft | 262 kts | 324° |
| 2026-04-12 11:03 | 53.58409 | 18.98400 | 16146 ft | 274 kts | 324° |
| 2026-04-12 11:03 | 53.59978 | 18.96422 | 15783 ft | 284 kts | 324° |
| 2026-04-12 11:04 | 53.61555 | 18.94434 | 15441 ft | 282 kts | 324° |
| 2026-04-12 11:04 | 53.63110 | 18.92466 | 15096 ft | 279 kts | 324° |
| 2026-04-12 11:04 | 53.64637 | 18.90531 | 14765 ft | 276 kts | 324° |
| 2026-04-12 11:04 | 53.66154 | 18.88609 | 14428 ft | 273 kts | 324° |
| 2026-04-12 11:05 | 53.67674 | 18.86683 | 14095 ft | 270 kts | 324° |
| 2026-04-12 11:05 | 53.69161 | 18.84794 | 13766 ft | 267 kts | 324° |
| 2026-04-12 11:05 | 53.70641 | 18.82915 | 13440 ft | 264 kts | 324° |
| 2026-04-12 11:05 | 53.72097 | 18.81065 | 13128 ft | 263 kts | 324° |
| 2026-04-12 11:06 | 53.73583 | 18.79177 | 12815 ft | 276 kts | 324° |
| 2026-04-12 11:06 | 53.75140 | 18.77196 | 12459 ft | 283 kts | 324° |
| 2026-04-12 11:06 | 53.76691 | 18.75200 | 12183 ft | 279 kts | 323° |
| 2026-04-12 11:06 | 53.78136 | 18.73087 | 12179 ft | 276 kts | 319° |
| 2026-04-12 11:07 | 53.79565 | 18.70876 | 12173 ft | 282 kts | 319° |
| 2026-04-12 11:07 | 53.81018 | 18.68640 | 12166 ft | 282 kts | 319° |
| 2026-04-12 11:07 | 53.82476 | 18.66414 | 12170 ft | 281 kts | 319° |
| 2026-04-12 11:07 | 53.83934 | 18.64189 | 12172 ft | 282 kts | 319° |
| 2026-04-12 11:08 | 53.85393 | 18.61963 | 12167 ft | 280 kts | 320° |
| 2026-04-12 11:08 | 53.86826 | 18.59776 | 12171 ft | 281 kts | 320° |
| 2026-04-12 11:08 | 53.88284 | 18.57550 | 12172 ft | 282 kts | 320° |
| 2026-04-12 11:08 | 53.89734 | 18.55333 | 12170 ft | 281 kts | 320° |
| 2026-04-12 11:09 | 53.91193 | 18.53102 | 12170 ft | 281 kts | 320° |
| 2026-04-12 11:09 | 53.92633 | 18.50896 | 12170 ft | 282 kts | 320° |
| 2026-04-12 11:09 | 53.94101 | 18.48644 | 12058 ft | 285 kts | 320° |
| 2026-04-12 11:09 | 53.95567 | 18.46394 | 11809 ft | 285 kts | 320° |
| 2026-04-12 11:10 | 53.97037 | 18.44138 | 11526 ft | 282 kts | 320° |
| 2026-04-12 11:10 | 53.98541 | 18.42065 | 11076 ft | 282 kts | 329° |
| 2026-04-12 11:10 | 54.00249 | 18.40524 | 10747 ft | 278 kts | 336° |
| 2026-04-12 11:10 | 54.01989 | 18.39117 | 10418 ft | 275 kts | 336° |
| 2026-04-12 11:11 | 54.03713 | 18.37703 | 10084 ft | 273 kts | 336° |
| 2026-04-12 11:11 | 54.05405 | 18.36291 | 9752 ft | 270 kts | 335° |
| 2026-04-12 11:11 | 54.07075 | 18.34891 | 9430 ft | 268 kts | 335° |
| 2026-04-12 11:11 | 54.08736 | 18.33494 | 9119 ft | 265 kts | 335° |
| 2026-04-12 11:12 | 54.10396 | 18.32097 | 8813 ft | 263 kts | 335° |
| 2026-04-12 11:12 | 54.12010 | 18.30735 | 8493 ft | 261 kts | 335° |
| 2026-04-12 11:12 | 54.13643 | 18.29357 | 8184 ft | 260 kts | 335° |
| 2026-04-12 11:12 | 54.15255 | 18.27996 | 7879 ft | 258 kts | 335° |
| 2026-04-12 11:13 | 54.16850 | 18.26648 | 7576 ft | 256 kts | 335° |
| 2026-04-12 11:13 | 54.18447 | 18.25296 | 7263 ft | 255 kts | 334° |
| 2026-04-12 11:13 | 54.20016 | 18.23968 | 7183 ft | 256 kts | 334° |
| 2026-04-12 11:13 | 54.21674 | 18.22565 | 7179 ft | 270 kts | 334° |
| 2026-04-12 11:14 | 54.23354 | 18.21141 | 7171 ft | 272 kts | 334° |
| 2026-04-12 11:14 | 54.25037 | 18.19739 | 7170 ft | 265 kts | 339° |
| 2026-04-12 11:14 | 54.26781 | 18.19080 | 7173 ft | 252 kts | 5° |
| 2026-04-12 11:14 | 54.28416 | 18.19808 | 7192 ft | 239 kts | 26° |
| 2026-04-12 11:15 | 54.29945 | 18.20941 | 6861 ft | 241 kts | 25° |
| 2026-04-12 11:15 | 54.31524 | 18.21873 | 6518 ft | 244 kts | 11° |
| 2026-04-12 11:15 | 54.33205 | 18.21714 | 6195 ft | 247 kts | 342° |
| 2026-04-12 11:15 | 54.34694 | 18.20322 | 5901 ft | 247 kts | 320° |
| 2026-04-12 11:16 | 54.35778 | 18.18042 | 5568 ft | 248 kts | 295° |
| 2026-04-12 11:16 | 54.36434 | 18.15330 | 5358 ft | 242 kts | 290° |
| 2026-04-12 11:16 | 54.37060 | 18.12654 | 4996 ft | 245 kts | 291° |
| 2026-04-12 11:16 | 54.37698 | 18.10014 | 4953 ft | 239 kts | 291° |
| 2026-04-12 11:17 | 54.38331 | 18.07397 | 4969 ft | 246 kts | 291° |
| 2026-04-12 11:17 | 54.38992 | 18.04666 | 4962 ft | 246 kts | 291° |
| 2026-04-12 11:17 | 54.39641 | 18.01977 | 4961 ft | 245 kts | 291° |
| 2026-04-12 11:17 | 54.40295 | 17.99267 | 4960 ft | 244 kts | 291° |
| 2026-04-12 11:18 | 54.40945 | 17.96568 | 4972 ft | 246 kts | 291° |
| 2026-04-12 11:18 | 54.41596 | 17.93866 | 4953 ft | 245 kts | 291° |
| 2026-04-12 11:18 | 54.42248 | 17.91157 | 4965 ft | 246 kts | 291° |
| 2026-04-12 11:18 | 54.43004 | 17.88539 | 4952 ft | 247 kts | 307° |
| 2026-04-12 11:19 | 54.44315 | 17.86735 | 4962 ft | 242 kts | 341° |
| 2026-04-12 11:19 | 54.45950 | 17.86297 | 4966 ft | 233 kts | 6° |
| 2026-04-12 11:19 | 54.47498 | 17.86887 | 4975 ft | 227 kts | 25° |
| 2026-04-12 11:19 | 54.48920 | 17.88034 | 4965 ft | 226 kts | 38° |
| 2026-04-12 11:20 | 54.49950 | 17.89981 | 4972 ft | 218 kts | 66° |
| 2026-04-12 11:20 | 54.50443 | 17.92405 | 4965 ft | 215 kts | 85° |
| 2026-04-12 11:20 | 54.50339 | 17.94917 | 4955 ft | 210 kts | 110° |
| 2026-04-12 11:20 | 54.49784 | 17.97235 | 4973 ft | 211 kts | 114° |
| 2026-04-12 11:21 | 54.49221 | 17.99550 | 4963 ft | 209 kts | 114° |
| 2026-04-12 11:21 | 54.48665 | 18.01876 | 4969 ft | 211 kts | 114° |
| 2026-04-12 11:21 | 54.48098 | 18.04227 | 4956 ft | 212 kts | 114° |
| 2026-04-12 11:21 | 54.47532 | 18.06568 | 4667 ft | 215 kts | 114° |
| 2026-04-12 11:22 | 54.46962 | 18.08926 | 4435 ft | 211 kts | 114° |
| 2026-04-12 11:22 | 54.46403 | 18.11235 | 4225 ft | 208 kts | 113° |
| 2026-04-12 11:22 | 54.45848 | 18.13524 | 4019 ft | 205 kts | 113° |
| 2026-04-12 11:22 | 54.45309 | 18.15744 | 3818 ft | 201 kts | 113° |
| 2026-04-12 11:23 | 54.44772 | 18.17959 | 3636 ft | 198 kts | 113° |
| 2026-04-12 11:23 | 54.44250 | 18.20114 | 3461 ft | 192 kts | 113° |
| 2026-04-12 11:23 | 54.43747 | 18.22187 | 3238 ft | 185 kts | 113° |
| 2026-04-12 11:23 | 54.43265 | 18.24173 | 3096 ft | 173 kts | 113° |
| 2026-04-12 11:24 | 54.42808 | 18.26051 | 2908 ft | 167 kts | 113° |
| 2026-04-12 11:24 | 54.42381 | 18.27803 | 2756 ft | 151 kts | 114° |
| 2026-04-12 11:24 | 54.41988 | 18.29417 | 2608 ft | 144 kts | 114° |
| 2026-04-12 11:24 | 54.41604 | 18.30982 | 2498 ft | 141 kts | 114° |
| 2026-04-12 11:25 | 54.41233 | 18.32489 | 2399 ft | 138 kts | 114° |
| 2026-04-12 11:25 | 54.40855 | 18.34002 | 2134 ft | 139 kts | 114° |
| 2026-04-12 11:25 | 54.40477 | 18.35558 | 1856 ft | 141 kts | 112° |
| 2026-04-12 11:25 | 54.40122 | 18.37086 | 1607 ft | 134 kts | 113° |
| 2026-04-12 11:26 | 54.39754 | 18.38562 | 1351 ft | 135 kts | 114° |
| 2026-04-12 11:26 | 54.39387 | 18.40031 | 1127 ft | 135 kts | 111° |
| 2026-04-12 11:26 | 54.39029 | 18.41500 | 957 ft | 136 kts | 114° |
| 2026-04-12 11:26 | 54.38647 | 18.42995 | 802 ft | 137 kts | 112° |
| 2026-04-12 11:27 | 54.38280 | 18.44500 | 594 ft | 136 kts | 112° |
| 2026-04-12 11:27 | 54.37922 | 18.45950 | 447 ft | 125 kts | 114° |
| 2026-04-12 11:27 | 54.37660 | 18.47011 | 449 ft | 69 kts | 113° |
| 2026-04-12 11:27 | 54.37484 | 18.47719 | 457 ft | 58 kts | 112° |
| 2026-04-12 11:28 | 54.37345 | 18.48290 | 471 ft | 42 kts | 111° |
| 2026-04-12 11:28 | 54.37306 | 18.48561 | 477 ft | 12 kts | 52° |
| 2026-04-12 11:28 | 54.37367 | 18.48629 | 480 ft | 8 kts | 25° |
| 2026-04-12 11:28 | 54.37418 | 18.48641 | 481 ft | 7 kts | 344° |
| 2026-04-12 11:29 | 54.37458 | 18.48550 | 478 ft | 16 kts | 290° |
| 2026-04-12 11:29 | 54.37506 | 18.48356 | 473 ft | 19 kts | 292° |
| 2026-04-12 11:29 | 54.37562 | 18.48127 | 468 ft | 21 kts | 292° |
| 2026-04-12 11:29 | 54.37623 | 18.47875 | 463 ft | 23 kts | 293° |
| 2026-04-12 11:30 | 54.37690 | 18.47607 | 457 ft | 25 kts | 292° |
| 2026-04-12 11:30 | 54.37764 | 18.47312 | 452 ft | 25 kts | 292° |
| 2026-04-12 11:30 | 54.37829 | 18.47052 | 450 ft | 21 kts | 292° |
| 2026-04-12 11:30 | 54.37888 | 18.46811 | 450 ft | 22 kts | 293° |
| 2026-04-12 11:31 | 54.37945 | 18.46603 | 449 ft | 9 kts | 309° |
| 2026-04-12 11:31 | 54.38004 | 18.46593 | 449 ft | 8 kts | 19° |
| 2026-04-12 11:31 | 54.38057 | 18.46607 | 449 ft | 7 kts | 335° |
| 2026-04-12 11:31 | 54.38084 | 18.46537 | 449 ft | 7 kts | 295° |
| 2026-04-12 11:32 | 54.38090 | 18.46476 | 449 ft | 5 kts | 235° |
| 2026-04-12 11:32 | 54.38052 | 18.46444 | 449 ft | 6 kts | 202° |
| 2026-04-12 11:32 | 54.38047 | 18.46440 | 449 ft | 0 kts | 202° |